Time;durP1;ratioP1;P1;durP2;ratioP2;P2;SDS_P1;SDS_P2;PMS_P1;PMS_P2;Temp;Humidity;BMP_temperature;BMP_pressure;BME280_temperature;BME280_humidity;BME280_pressure;Samples;Min_cycle;Max_cycle;Signal;HPM_P1;HPM_P2
2023/12/21 00:01:54;;;;;;;23.10;7.22;;;8.40;99.90;;;;;;6244217;22;20020;-92
2023/12/21 00:04:23;;;;;;;22.23;8.07;;;8.20;99.90;;;;;;6229559;22;20015;-93
2023/12/21 00:07:06;;;;;;;;;;;;;;;;;;;;;
2023/12/21 00:12:43;;;;;;;21.02;8.68;;;8.30;99.90;;;;;;6265584;22;20056;-93
2023/12/21 00:15:31;;;;;;;28.60;8.85;;;8.50;99.90;;;;;;6231009;22;20042;-93
2023/12/21 00:20:56;;;;;;;21.50;7.65;;;7.80;99.90;;;;;;6276654;22;20047;-93
2023/12/21 00:23:34;;;;;;;32.88;7.45;;;8.50;99.90;;;;;;6250683;22;20482;-92
2023/12/21 00:26:10;;;;;;;;;;;;;;;;;;;;;
2023/12/21 00:29:04;;;;;;;30.42;9.27;;;8.50;99.90;;;;;;6276905;22;20072;-93
2023/12/21 00:31:36;;;;;;;20.55;7.03;;;8.50;99.90;;;;;;6250919;22;20024;-93
2023/12/21 00:34:02;;;;;;;27.48;8.55;;;8.40;99.90;;;;;;6227096;22;20439;-92
2023/12/21 00:36:37;;;;;;;;;;;;;;;;;;;;;
2023/12/21 00:39:10;;;;;;;25.50;7.50;;;8.50;99.90;;;;;;6276169;22;20055;-93
2023/12/21 00:42:10;;;;;;;32.78;8.52;;;9.60;99.90;;;;;;6225831;22;20020;-93
2023/12/21 00:44:40;;;;;;;32.15;9.55;;;8.50;99.90;;;;;;6250886;22;20022;-93
2023/12/21 00:47:35;;;;;;;16.80;6.50;;;8.40;99.90;;;;;;6250510;22;20019;-93
2023/12/21 00:50:03;;;;;;;37.40;10.07;;;8.50;99.90;;;;;;6250444;22;20012;-92
2023/12/21 00:52:39;;;;;;;25.42;7.93;;;8.50;99.90;;;;;;6276335;22;20019;-93
2023/12/21 00:55:10;;;;;;;19.92;7.63;;;8.50;99.90;;;;;;6276174;22;20039;-93
2023/12/21 00:58:04;;;;;;;24.92;7.13;;;8.50;99.90;;;;;;6250938;22;20386;-93
2023/12/21 01:00:52;;;;;;;22.10;7.15;;;8.50;99.90;;;;;;6250805;22;20020;-92
2023/12/21 01:03:17;;;;;;;24.35;7.18;;;8.50;99.90;;;;;;6250172;22;20016;-93
2023/12/21 01:05:46;;;;;;;30.80;7.10;;;8.60;99.90;;;;;;6250429;22;20099;-93
2023/12/21 01:08:15;;;;;;;19.48;6.63;;;8.50;99.90;;;;;;6250136;22;20019;-93
2023/12/21 01:10:41;;;;;;;25.50;7.05;;;8.50;99.90;;;;;;6250652;22;20015;-92
2023/12/21 01:13:15;;;;;;;17.58;6.35;;;8.50;99.90;;;;;;6250251;22;20012;-92
2023/12/21 01:16:07;;;;;;;21.02;6.85;;;8.50;99.90;;;;;;6226486;22;20026;-93
2023/12/21 01:18:38;;;;;;;22.33;7.18;;;8.50;99.90;;;;;;6254423;22;20016;-92
2023/12/21 01:21:15;;;;;;;23.45;6.85;;;9.00;99.90;;;;;;6250226;22;20047;-92
2023/12/21 01:23:50;;;;;;;22.80;7.05;;;8.60;99.90;;;;;;6250633;22;20015;-92
2023/12/21 01:26:31;;;;;;;26.30;7.28;;;8.50;99.90;;;;;;6250718;22;20062;-92
2023/12/21 01:29:02;;;;;;;20.98;6.57;;;8.40;99.90;;;;;;6201670;22;20474;-92
2023/12/21 01:31:33;;;;;;;15.57;6.18;;;8.50;99.90;;;;;;6250872;22;20379;-93
2023/12/21 01:34:08;;;;;;;31.75;8.75;;;8.50;99.90;;;;;;6225252;22;20020;-93
2023/12/21 01:36:46;;;;;;;17.42;6.57;;;8.60;99.90;;;;;;6249871;22;20338;-92
2023/12/21 01:39:23;;;;;;;22.58;6.53;;;8.50;99.90;;;;;;6249568;22;20020;-92
2023/12/21 01:42:10;;;;;;;19.85;6.78;;;7.60;99.90;;;;;;6249699;22;20020;-92
2023/12/21 01:44:56;;;;;;;15.57;7.18;;;8.60;99.90;;;;;;6228531;22;20019;-93
2023/12/21 01:47:30;;;;;;;20.30;6.45;;;8.90;99.90;;;;;;6249149;22;20023;-92
2023/12/21 01:50:10;;;;;;;19.05;6.35;;;8.60;99.90;;;;;;6226269;22;20117;-92
2023/12/21 01:52:44;;;;;;;18.85;6.95;;;8.50;99.90;;;;;;6224530;22;20020;-92
2023/12/21 01:55:27;;;;;;;;;;;;;;;;;;;;;
2023/12/21 01:57:59;;;;;;;17.80;7.28;;;8.60;99.90;;;;;;6275552;22;20443;-92
2023/12/21 02:00:53;;;;;;;22.55;7.28;;;8.60;99.90;;;;;;6224249;22;20042;-93
2023/12/21 02:03:27;;;;;;;23.00;7.00;;;8.60;99.90;;;;;;6227051;22;20304;-92
2023/12/21 02:06:26;;;;;;;22.10;7.22;;;8.50;99.90;;;;;;6250112;22;20016;-92
2023/12/21 02:09:04;;;;;;;;;;;;;;;;;;;;;
2023/12/21 02:11:35;;;;;;;15.85;6.13;;;9.50;99.90;;;;;;6252009;22;20015;-92
2023/12/21 02:14:01;;;;;;;19.20;7.05;;;8.60;99.90;;;;;;6225142;22;20110;-93
2023/12/21 02:16:55;;;;;;;23.30;7.72;;;8.60;99.90;;;;;;6250367;22;20458;-92
2023/12/21 02:19:29;;;;;;;20.52;6.70;;;8.50;99.90;;;;;;6249268;22;20077;-92
2023/12/21 02:22:02;;;;;;;15.30;6.25;;;8.60;99.90;;;;;;6224678;22;20141;-92
2023/12/21 02:24:28;;;;;;;20.33;6.15;;;7.80;99.90;;;;;;6249075;22;20027;-92
2023/12/21 02:26:57;;;;;;;14.32;6.50;;;8.60;99.90;;;;;;6249313;22;20012;-93
2023/12/21 02:29:27;;;;;;;24.92;6.97;;;8.60;99.90;;;;;;6248892;22;20121;-92
2023/12/21 02:31:56;;;;;;;14.65;6.75;;;8.50;99.90;;;;;;6224999;22;20015;-92
2023/12/21 02:34:34;;;;;;;;;;;;;;;;;;;;;
2023/12/21 02:37:02;;;;;;;19.50;6.53;;;8.50;99.90;;;;;;6275515;22;20020;-93
2023/12/21 02:39:33;;;;;;;24.38;6.60;;;8.70;99.90;;;;;;6248944;22;20081;-93
2023/12/21 02:42:11;;;;;;;19.98;6.43;;;8.60;99.90;;;;;;6224194;22;20011;-92
2023/12/21 02:44:50;;;;;;;24.70;7.22;;;8.70;99.90;;;;;;6204838;22;20018;-93
2023/12/21 02:47:47;;;;;;;19.38;6.45;;;8.50;99.90;;;;;;6226117;22;20026;-92
2023/12/21 02:50:15;;;;;;;15.00;5.78;;;8.60;99.90;;;;;;6249501;22;20023;-92
2023/12/21 02:52:44;;;;;;;18.13;6.38;;;8.20;99.90;;;;;;6249310;22;20109;-92
2023/12/21 02:55:43;;;;;;;;;;;;;;;;;;;;;
2023/12/21 02:58:24;;;;;;;;;;;;;;;;;;;;;
2023/12/21 03:00:52;;;;;;;19.92;7.05;;;8.60;99.90;;;;;;6275257;22;20027;-92
2023/12/21 03:03:23;;;;;;;25.27;7.72;;;8.60;99.90;;;;;;6249505;22;20011;-92
2023/12/21 03:06:12;;;;;;;16.73;6.60;;;8.20;99.90;;;;;;6249213;22;20023;-92
2023/12/21 03:08:51;;;;;;;;;;;;;;;;;;;;;
2023/12/21 03:11:44;;;;;;;21.48;6.90;;;7.90;99.90;;;;;;6274822;22;20034;-91
2023/12/21 03:14:22;;;;;;;16.35;6.40;;;7.50;99.90;;;;;;6249560;22;20043;-92
2023/12/21 03:16:51;;;;;;;17.80;7.28;;;8.50;99.90;;;;;;6225431;22;20050;-91
2023/12/21 03:19:24;;;;;;;15.77;7.35;;;9.40;99.90;;;;;;6249259;22;20019;-92
2023/12/21 03:22:00;;;;;;;18.80;6.75;;;8.50;99.90;;;;;;6227593;22;20389;-92
2023/12/21 03:24:29;;;;;;;21.03;9.33;;;8.50;99.90;;;;;;6277062;22;20022;-92
2023/12/21 03:27:14;;;;;;;15.20;6.45;;;8.60;99.90;;;;;;6226801;22;20022;-93
2023/12/21 03:29:51;;;;;;;17.48;7.10;;;8.50;99.90;;;;;;6230409;22;20456;-93
2023/12/21 03:32:30;;;;;;;;;;;;;;;;;;;;;
2023/12/21 03:35:02;;;;;;;13.60;6.10;;;8.50;99.90;;;;;;6277344;22;20016;-93
2023/12/21 03:37:37;;;;;;;12.07;5.63;;;8.60;99.90;;;;;;6251096;22;20049;-93
2023/12/21 03:40:13;;;;;;;11.02;5.60;;;8.50;99.90;;;;;;6251523;22;20012;-92
2023/12/21 03:42:52;;;;;;;12.07;5.25;;;8.50;99.90;;;;;;6226407;22;20016;-93
2023/12/21 03:45:29;;;;;;;8.93;5.35;;;8.40;99.90;;;;;;6227577;22;20016;-93
2023/12/21 03:48:00;;;;;;;12.65;4.95;;;8.20;99.90;;;;;;6203265;22;20442;-93
2023/12/21 03:50:38;;;;;;;;;;;;;;;;;;;;;
2023/12/21 03:53:17;;;;;;;8.57;4.53;;;8.40;99.90;;;;;;6276895;22;20012;-92
2023/12/21 03:55:56;;;;;;;;;;;;;;;;;;;;;
2023/12/21 03:58:22;;;;;;;14.38;6.50;;;8.50;99.90;;;;;;6276731;22;20015;-93
2023/12/21 04:00:52;;;;;;;11.37;4.80;;;8.50;99.90;;;;;;6225759;22;20018;-92
2023/12/21 04:03:37;;;;;;;9.45;5.25;;;8.50;99.90;;;;;;6253415;22;20016;-93
2023/12/21 04:06:09;;;;;;;11.77;5.78;;;8.40;99.90;;;;;;6251645;22;20073;-92
2023/12/21 04:08:34;;;;;;;10.85;4.95;;;8.50;99.90;;;;;;6225892;22;20023;-93
2023/12/21 04:11:08;;;;;;;14.57;5.23;;;8.50;99.90;;;;;;6251343;22;20019;-92
2023/12/21 04:13:39;;;;;;;12.30;5.85;;;8.50;99.90;;;;;;6250647;22;20263;-91
2023/12/21 04:16:12;;;;;;;13.40;4.93;;;8.50;99.90;;;;;;6226827;22;20016;-92
2023/12/21 04:18:41;;;;;;;12.73;5.40;;;8.40;99.90;;;;;;6250278;22;20077;-93
2023/12/21 04:21:09;;;;;;;18.10;6.60;;;8.50;99.90;;;;;;6250719;22;20352;-92
2023/12/21 04:23:37;;;;;;;9.85;5.35;;;8.20;99.90;;;;;;6225139;22;20038;-92
2023/12/21 04:26:03;;;;;;;11.93;5.40;;;8.60;99.90;;;;;;6250852;22;20081;-92
2023/12/21 04:28:29;;;;;;;15.45;7.20;;;8.60;99.90;;;;;;6225561;22;20258;-92
2023/12/21 04:30:55;;;;;;;10.23;5.43;;;8.50;99.90;;;;;;6250791;22;20016;-92
2023/12/21 04:33:24;;;;;;;14.43;6.45;;;8.50;99.90;;;;;;6250836;22;20047;-93
2023/12/21 04:35:59;;;;;;;12.90;6.47;;;8.50;99.90;;;;;;6251156;22;20051;-92
2023/12/21 04:38:45;;;;;;;16.55;6.40;;;8.60;99.90;;;;;;6225764;22;20016;-92
2023/12/21 04:41:14;;;;;;;18.02;7.25;;;8.60;99.90;;;;;;6250471;22;20019;-93
2023/12/21 04:43:40;;;;;;;11.93;6.82;;;8.50;99.90;;;;;;6276121;22;20023;-92
2023/12/21 04:46:14;;;;;;;15.80;6.57;;;8.50;99.90;;;;;;6250438;22;20072;-92
2023/12/21 04:48:45;;;;;;;14.10;7.03;;;8.30;99.90;;;;;;6250493;22;20076;-93
2023/12/21 04:51:18;;;;;;;14.35;6.20;;;8.10;99.90;;;;;;6250722;22;20023;-92
2023/12/21 04:53:44;;;;;;;16.83;6.43;;;8.50;99.90;;;;;;6224886;22;20019;-92
2023/12/21 04:56:26;;;;;;;18.75;8.00;;;7.80;99.90;;;;;;6250837;22;20390;-92
2023/12/21 04:58:57;;;;;;;20.25;6.35;;;8.60;99.90;;;;;;6250991;22;20027;-92
2023/12/21 05:01:27;;;;;;;12.27;6.30;;;8.60;99.90;;;;;;6225321;22;20018;-92
2023/12/21 05:04:06;;;;;;;;;;;;;;;;;;;;;
2023/12/21 05:06:37;;;;;;;16.75;6.80;;;8.60;99.90;;;;;;6275792;22;20470;-93
2023/12/21 05:09:05;;;;;;;15.57;7.00;;;8.30;99.90;;;;;;6276381;22;20340;-92
2023/12/21 05:11:37;;;;;;;18.40;6.63;;;8.60;99.90;;;;;;6250197;22;20344;-92
2023/12/21 05:14:08;;;;;;;16.52;6.53;;;8.60;99.90;;;;;;6227337;22;20016;-92
2023/12/21 05:16:39;;;;;;;13.50;6.38;;;8.50;99.90;;;;;;6250286;22;20112;-93
2023/12/21 05:19:14;;;;;;;16.90;6.32;;;8.60;99.90;;;;;;6250424;22;20042;-92
2023/12/21 05:22:01;;;;;;;;;;;;;;;;;;;;;
2023/12/21 05:24:32;;;;;;;11.88;6.75;;;8.10;99.90;;;;;;6276015;22;20026;-92
2023/12/21 05:34:28;;;;;;;11.93;6.03;;;9.30;99.90;;;;;;6266699;22;19997;-91
2023/12/21 05:37:04;;;;;;;14.80;6.28;;;8.50;99.90;;;;;;6285605;22;20065;-92
2023/12/21 05:39:35;;;;;;;19.92;6.45;;;8.60;99.90;;;;;;6280642;22;20015;-91
2023/12/21 05:42:06;;;;;;;17.55;6.00;;;8.30;99.90;;;;;;6280231;22;20019;-91
2023/12/21 05:44:42;;;;;;;12.82;5.38;;;8.50;99.90;;;;;;6280564;22;20018;-92
2023/12/21 05:47:08;;;;;;;18.90;6.18;;;8.50;99.90;;;;;;6280687;22;20443;-90
2023/12/21 05:49:38;;;;;;;16.50;5.13;;;8.40;99.90;;;;;;6279848;22;20095;-91
2023/12/21 05:52:04;;;;;;;12.85;5.28;;;8.50;99.90;;;;;;6255998;22;20019;-91
2023/12/21 05:54:40;;;;;;;12.95;5.68;;;8.60;99.90;;;;;;6255035;22;20406;-90
2023/12/21 05:57:05;;;;;;;14.20;5.13;;;8.60;99.90;;;;;;6280649;22;20026;-91
2023/12/21 05:59:34;;;;;;;11.63;4.47;;;8.60;99.90;;;;;;6280644;22;20020;-91
2023/12/21 06:02:08;;;;;;;13.98;4.88;;;8.60;99.90;;;;;;6256133;22;20019;-91
2023/12/21 06:04:36;;;;;;;14.18;4.82;;;8.50;99.90;;;;;;6306087;22;20019;-91
2023/12/21 06:07:25;;;;;;;14.50;4.53;;;8.60;99.90;;;;;;6306005;22;20050;-92
2023/12/21 06:09:55;;;;;;;15.73;4.95;;;8.60;99.90;;;;;;6280327;22;20019;-91
2023/12/21 06:12:37;;;;;;;11.95;4.55;;;8.60;99.90;;;;;;6280626;22;20485;-91
2023/12/21 06:15:13;;;;;;;9.48;4.28;;;8.80;99.90;;;;;;6256967;22;20015;-91
2023/12/21 06:18:09;;;;;;;13.60;4.90;;;8.60;99.90;;;;;;6253534;22;20019;-91
2023/12/21 06:20:45;;;;;;;13.82;3.95;;;8.60;99.90;;;;;;6280462;22;20015;-91
2023/12/21 06:23:16;;;;;;;5.75;3.35;;;8.60;99.90;;;;;;6255585;22;20057;-91
2023/12/21 06:25:59;;;;;;;11.88;4.53;;;8.80;99.90;;;;;;6279762;22;20094;-91
2023/12/21 06:31:21;;;;;;;13.73;5.70;;;8.60;99.90;;;;;;6284408;22;20058;-88
2023/12/21 06:33:50;;;;;;;13.32;4.35;;;8.60;99.90;;;;;;6252892;22;20023;-87
2023/12/21 06:36:16;;;;;;;11.48;4.15;;;9.60;99.90;;;;;;6279572;22;20046;-87
2023/12/21 06:38:52;;;;;;;10.77;4.07;;;8.70;99.90;;;;;;6279366;22;20019;-87
2023/12/21 06:41:27;;;;;;;13.60;4.57;;;8.70;99.90;;;;;;6255836;22;20015;-87
2023/12/21 06:43:56;;;;;;;10.70;4.28;;;8.80;99.90;;;;;;6278847;22;20011;-87
2023/12/21 06:46:24;;;;;;;12.15;3.92;;;8.80;99.90;;;;;;6305496;22;20012;-87
2023/12/21 06:48:55;;;;;;;15.40;4.55;;;8.70;99.90;;;;;;6228957;22;20343;-87
2023/12/21 06:51:44;;;;;;;11.25;3.85;;;8.80;99.90;;;;;;6305604;22;20332;-87
2023/12/21 06:54:32;;;;;;;16.15;4.20;;;8.70;99.90;;;;;;6305608;22;20098;-94
2023/12/21 06:57:28;;;;;;;;;;;;;;;;;;;;;
2023/12/21 07:00:05;;;;;;;11.57;4.38;;;8.70;99.90;;;;;;6284154;22;20018;-89
2023/12/21 07:02:31;;;;;;;11.25;3.97;;;8.70;99.90;;;;;;6281841;22;20016;-88
2023/12/21 07:05:00;;;;;;;7.63;3.33;;;8.70;99.90;;;;;;6307103;22;20069;-87
2023/12/21 07:07:28;;;;;;;8.93;4.30;;;8.60;99.90;;;;;;6282488;22;20406;-88
2023/12/21 07:09:59;;;;;;;8.43;3.75;;;8.70;99.90;;;;;;6281692;22;20027;-87
2023/12/21 07:12:28;;;;;;;7.32;3.67;;;8.70;99.90;;;;;;6280808;22;20026;-89
2023/12/21 07:14:56;;;;;;;7.40;2.80;;;8.70;99.90;;;;;;6281050;22;20015;-89
2023/12/21 07:17:31;;;;;;;8.13;3.20;;;8.70;99.90;;;;;;6230901;22;20033;-90
2023/12/21 07:19:58;;;;;;;7.55;3.35;;;8.70;99.90;;;;;;6281499;22;20080;-90
2023/12/21 07:22:24;;;;;;;7.90;3.85;;;8.60;99.90;;;;;;6281461;22;20050;-90
2023/12/21 07:24:55;;;;;;;8.90;2.93;;;8.60;99.90;;;;;;6255793;22;20339;-90
2023/12/21 07:27:24;;;;;;;5.97;2.35;;;8.70;99.90;;;;;;6281366;22;20382;-90
2023/12/21 07:29:50;;;;;;;4.50;2.40;;;8.60;99.90;;;;;;6281167;22;20019;-89
2023/12/21 07:32:28;;;;;;;6.83;3.20;;;8.70;99.90;;;;;;6281649;22;20050;-90
2023/12/21 07:35:03;;;;;;;8.70;2.90;;;8.40;99.90;;;;;;6232615;22;20019;-89
2023/12/21 07:37:31;;;;;;;9.13;2.97;;;8.70;99.90;;;;;;6281762;22;20027;-90
2023/12/21 07:40:03;;;;;;;4.15;2.17;;;8.60;99.90;;;;;;6307022;22;20019;-90
2023/12/21 07:42:29;;;;;;;5.68;1.85;;;8.60;99.90;;;;;;6256638;22;20051;-90
2023/12/21 07:44:57;;;;;;;6.70;2.50;;;8.70;99.90;;;;;;6280927;22;20022;-89
2023/12/21 07:47:25;;;;;;;8.55;2.35;;;8.70;99.90;;;;;;6255894;22;20333;-90
2023/12/21 07:49:51;;;;;;;7.30;2.70;;;8.70;99.90;;;;;;6280942;22;20026;-90
2023/12/21 07:52:19;;;;;;;6.13;2.20;;;7.80;99.90;;;;;;6281272;22;20019;-90
2023/12/21 07:54:45;;;;;;;6.30;2.22;;;8.50;99.90;;;;;;6307063;22;20011;-90
2023/12/21 07:57:14;;;;;;;5.17;2.47;;;8.70;99.90;;;;;;6280941;22;20015;-90
2023/12/21 07:59:44;;;;;;;5.30;2.10;;;8.70;99.90;;;;;;6255980;22;20439;-89
2023/12/21 08:02:18;;;;;;;5.00;2.20;;;8.70;99.90;;;;;;6306764;22;20011;-90
2023/12/21 08:04:50;;;;;;;6.57;2.05;;;7.90;99.90;;;;;;6281669;22;20038;-90
2023/12/21 08:07:21;;;;;;;3.38;2.15;;;9.00;99.90;;;;;;6306978;22;20328;-90
2023/12/21 08:09:55;;;;;;;4.82;2.75;;;8.60;99.90;;;;;;6257708;22;20048;-90
2023/12/21 08:12:20;;;;;;;1.98;1.60;;;8.90;99.90;;;;;;6282794;22;20022;-90
2023/12/21 08:14:49;;;;;;;4.13;1.90;;;8.70;99.90;;;;;;6281227;22;20019;-90
2023/12/21 08:17:20;;;;;;;1.50;1.30;;;8.70;99.90;;;;;;6280711;22;20018;-89
2023/12/21 08:19:48;;;;;;;4.85;1.80;;;8.70;99.90;;;;;;6256213;22;20015;-90
2023/12/21 08:22:14;;;;;;;3.22;1.30;;;8.80;99.90;;;;;;6280452;22;20073;-88
2023/12/21 08:24:40;;;;;;;4.93;1.77;;;8.70;99.90;;;;;;6280687;22;20430;-88
2023/12/21 08:27:08;;;;;;;5.00;1.70;;;8.70;99.90;;;;;;6230096;22;20020;-92
2023/12/21 08:29:45;;;;;;;4.13;1.42;;;8.70;99.90;;;;;;6255976;22;20027;-89
2023/12/21 08:32:19;;;;;;;3.40;1.17;;;8.70;99.90;;;;;;6280520;22;20073;-90
2023/12/21 08:34:46;;;;;;;3.78;1.35;;;7.70;99.90;;;;;;6279633;22;20597;-89
2023/12/21 08:37:22;;;;;;;3.25;1.50;;;8.70;99.90;;;;;;6279909;22;20027;-89
2023/12/21 08:40:14;;;;;;;3.33;1.50;;;9.30;99.90;;;;;;6281199;22;20396;-90
2023/12/21 08:42:43;;;;;;;3.08;1.40;;;8.80;99.90;;;;;;6305624;22;20094;-89
2023/12/21 08:45:16;;;;;;;2.35;1.38;;;9.20;99.90;;;;;;6281229;22;20015;-89
2023/12/21 08:47:45;;;;;;;4.28;1.70;;;8.80;99.90;;;;;;6281086;22;20061;-90
2023/12/21 08:50:18;;;;;;;6.75;2.15;;;8.70;99.90;;;;;;6280269;22;20339;-89
2023/12/21 08:52:46;;;;;;;5.30;2.15;;;8.80;99.90;;;;;;6280956;22;20469;-90
2023/12/21 08:55:24;;;;;;;7.07;2.25;;;8.80;99.90;;;;;;6283118;22;20023;-89
2023/12/21 08:57:58;;;;;;;12.25;2.90;;;8.90;99.90;;;;;;6254829;22;20435;-89
2023/12/21 09:00:27;;;;;;;6.45;2.50;;;8.90;99.90;;;;;;6257334;22;20347;-89
2023/12/21 09:03:06;;;;;;;10.10;3.47;;;8.80;99.90;;;;;;6280360;22;20011;-89
2023/12/21 09:05:39;;;;;;;10.20;2.95;;;8.20;99.90;;;;;;6280439;22;20015;-88
2023/12/21 09:08:08;;;;;;;9.50;3.47;;;10.40;99.90;;;;;;6306019;22;20056;-89
2023/12/21 09:10:34;;;;;;;11.80;3.37;;;8.90;99.90;;;;;;6280541;22;20249;-89
2023/12/21 09:13:00;;;;;;;7.20;3.37;;;8.90;99.90;;;;;;6280052;22;20018;-89
2023/12/21 09:15:38;;;;;;;10.75;3.70;;;8.90;99.90;;;;;;6281100;22;20015;-90
2023/12/21 09:18:23;;;;;;;11.88;2.88;;;8.90;99.90;;;;;;6279843;22;20123;-90
2023/12/21 09:20:51;;;;;;;;;;;8.90;99.90;;;;;;6256792;22;20054;-87
2023/12/21 09:23:19;;;;;;;6.90;3.17;;;8.90;99.90;;;;;;6281436;22;19915;-89
2023/12/21 09:25:50;;;;;;;11.77;3.20;;;9.00;99.90;;;;;;6280916;22;20015;-90
2023/12/21 09:28:22;;;;;;;8.25;3.25;;;7.90;99.90;;;;;;6255245;22;20201;-90
2023/12/21 09:31:00;;;;;;;;;;;;;;;;;;;;;
2023/12/21 09:33:26;;;;;;;9.30;3.05;;;9.00;99.90;;;;;;6282676;22;20023;-91
2023/12/21 09:36:02;;;;;;;9.33;2.70;;;9.00;99.90;;;;;;6280716;22;20016;-91
2023/12/21 09:38:52;;;;;;;16.00;3.75;;;9.10;99.90;;;;;;6280527;22;20307;-91
2023/12/21 09:41:33;;;;;;;5.82;2.28;;;9.20;99.90;;;;;;6305304;22;20098;-91
2023/12/21 09:44:06;;;;;;;11.65;3.88;;;9.10;99.90;;;;;;6259447;22;20015;-90
2023/12/21 09:47:02;;;;;;;9.48;3.47;;;9.30;99.90;;;;;;6306176;22;20047;-89
2023/12/21 09:49:37;;;;;;;14.32;3.95;;;9.20;99.90;;;;;;6280162;22;20474;-89
2023/12/21 09:52:08;;;;;;;16.55;3.60;;;9.30;99.90;;;;;;6255675;22;20019;-89
2023/12/21 09:54:45;;;;;;;15.02;4.18;;;9.30;99.90;;;;;;6280260;22;20094;-90
2023/12/21 09:57:17;;;;;;;15.15;4.03;;;9.40;99.90;;;;;;6255842;22;20347;-90
2023/12/21 10:00:01;;;;;;;;;;;;;;;;;;;;;
2023/12/21 10:02:46;;;;;;;14.18;3.90;;;9.30;99.90;;;;;;6284370;22;20447;-90
2023/12/21 10:05:47;;;;;;;12.48;5.43;;;9.40;99.90;;;;;;6280590;22;20102;-90
2023/12/21 10:08:15;;;;;;;;;;;9.40;99.90;;;;;;6282341;22;20015;-89
2023/12/21 10:11:06;;;;;;;;;;;8.50;99.90;;;;;;6280830;22;19946;-90
2023/12/21 10:13:37;;;;;;;15.93;4.80;;;9.30;99.90;;;;;;6279630;22;20306;-90
2023/12/21 10:16:09;;;;;;;15.90;5.57;;;9.50;99.90;;;;;;6306234;22;20019;-90
2023/12/21 10:18:40;;;;;;;19.23;4.80;;;9.50;99.90;;;;;;6280386;22;20015;-90
2023/12/21 10:21:26;;;;;;;19.90;5.80;;;9.50;99.90;;;;;;6254997;22;20572;-91
2023/12/21 10:24:00;;;;;;;13.20;4.55;;;9.50;99.90;;;;;;6283983;22;20026;-89
2023/12/21 10:26:48;;;;;;;18.80;4.70;;;9.60;99.90;;;;;;6254362;22;20090;-90
2023/12/21 10:29:30;;;;;;;14.32;4.13;;;9.50;99.90;;;;;;6259645;22;20519;-87
2023/12/21 10:31:59;;;;;;;16.25;5.32;;;9.50;99.90;;;;;;6280009;22;20027;-87
2023/12/21 10:34:25;;;;;;;16.15;4.30;;;9.50;99.90;;;;;;6253762;22;20456;-87
2023/12/21 10:37:10;;;;;;;;;;;;;;;;;;;;;
2023/12/21 10:39:49;;;;;;;15.80;4.45;;;9.50;99.90;;;;;;6308959;22;20328;-89
2023/12/21 10:42:33;;;;;;;16.70;5.20;;;9.60;99.90;;;;;;6283316;22;20049;-90
2023/12/21 10:45:16;;;;;;;15.02;3.08;;;9.50;99.90;;;;;;6281761;22;20023;-89
2023/12/21 10:48:16;;;;;;;;;;;;;;;;;;;;;
2023/12/21 10:51:07;;;;;;;15.07;3.65;;;8.80;99.90;;;;;;6305924;22;20077;-89
2023/12/21 10:53:39;;;;;;;15.95;4.93;;;9.60;99.90;;;;;;6279194;22;20011;-89
2023/12/21 10:56:21;;;;;;;;;;;;;;;;;;;;;
2023/12/21 10:59:20;;;;;;;18.77;3.97;;;9.60;99.90;;;;;;6282544;22;20072;-89
2023/12/21 11:02:10;;;;;;;16.75;4.40;;;9.10;99.90;;;;;;6305578;22;20030;-89
2023/12/21 11:04:45;;;;;;;12.80;3.70;;;9.80;99.90;;;;;;6279477;22;20016;-92
2023/12/21 11:07:26;;;;;;;17.90;4.80;;;9.70;99.90;;;;;;6281577;22;20070;-90
2023/12/21 11:10:11;;;;;;;;;;;;;;;;;;;;;
2023/12/21 11:12:40;;;;;;;17.73;4.22;;;9.60;99.90;;;;;;6282909;22;20216;-90
2023/12/21 11:15:20;;;;;;;15.32;4.15;;;9.60;99.90;;;;;;6280188;22;20011;-89
2023/12/21 11:18:18;;;;;;;12.73;3.97;;;9.70;99.90;;;;;;6256427;22;20042;-89
2023/12/21 11:20:50;;;;;;;15.73;4.25;;;9.60;99.90;;;;;;6279906;22;20015;-88
2023/12/21 11:23:44;;;;;;;15.13;4.00;;;9.60;99.90;;;;;;6279769;22;20011;-92
2023/12/21 11:26:37;;;;;;;;;;;;;;;;;;;;;
2023/12/21 11:29:10;;;;;;;38.92;5.93;;;9.70;99.90;;;;;;6305847;22;20405;-90
2023/12/21 11:32:05;;;;;;;13.45;4.32;;;9.90;99.90;;;;;;6252426;22;20019;-90
2023/12/21 11:34:51;;;;;;;12.25;3.65;;;8.90;99.90;;;;;;6278445;22;20019;-89
2023/12/21 11:37:28;;;;;;;15.68;4.40;;;9.80;99.90;;;;;;6254303;22;20097;-90
2023/12/21 11:40:09;;;;;;;;;;;;;;;;;;;;;
2023/12/21 11:42:45;;;;;;;18.25;3.85;;;9.80;99.90;;;;;;6306709;22;20011;-90
2023/12/21 11:45:28;;;;;;;18.05;3.95;;;9.70;99.90;;;;;;6258034;22;20482;-89
2023/12/21 11:48:08;;;;;;;15.40;4.03;;;10.10;99.90;;;;;;6257342;22;20448;-90
2023/12/21 11:51:01;;;;;;;19.25;4.82;;;9.70;99.90;;;;;;6257954;22;20019;-90
2023/12/21 11:56:49;;;;;;;20.13;5.32;;;9.60;99.90;;;;;;6295521;22;20065;-92
2023/12/21 11:59:22;;;;;;;17.52;5.05;;;9.60;99.90;;;;;;6282356;22;20513;-90
2023/12/21 12:02:06;;;;;;;25.30;4.75;;;9.70;99.90;;;;;;6282381;22;20495;-90
2023/12/21 12:04:50;;;;;;;19.88;4.70;;;9.70;99.90;;;;;;6258352;22;20015;-91
2023/12/21 12:07:45;;;;;;;;;;;;;;;;;;;;;
2023/12/21 12:10:19;;;;;;;9.52;4.45;;;9.50;99.90;;;;;;6307143;22;20023;-90
2023/12/21 12:12:52;;;;;;;21.63;6.32;;;9.90;99.90;;;;;;6255517;22;20458;-90
2023/12/21 12:15:23;;;;;;;14.80;4.97;;;9.70;99.90;;;;;;6232239;22;20512;-90
2023/12/21 12:17:57;;;;;;;10.35;4.05;;;9.70;99.90;;;;;;6281067;22;20015;-90
2023/12/21 12:20:33;;;;;;;21.88;7.03;;;9.80;99.90;;;;;;6255442;22;20019;-90
2023/12/21 12:23:09;;;;;;;21.95;4.53;;;9.80;99.90;;;;;;6257920;22;20011;-90
2023/12/21 12:25:41;;;;;;;16.52;4.53;;;9.80;99.90;;;;;;6280481;22;20015;-90
2023/12/21 12:28:17;;;;;;;13.15;3.92;;;9.80;99.90;;;;;;6281896;22;20094;-91
2023/12/21 12:31:06;;;;;;;14.50;4.53;;;9.90;99.90;;;;;;6232382;22;20066;-91
2023/12/21 12:33:44;;;;;;;20.70;5.13;;;9.90;99.90;;;;;;6282067;22;20015;-92
2023/12/21 12:36:21;;;;;;;;;;;;;;;;;;;;;
2023/12/21 12:39:19;;;;;;;;;;;;;;;;;;;;;
2023/12/21 12:42:05;;;;;;;20.77;4.90;;;10.00;99.90;;;;;;6286883;22;20015;-90
2023/12/21 12:44:51;;;;;;;18.02;5.25;;;9.90;99.90;;;;;;6256310;22;20053;-93
2023/12/21 12:47:25;;;;;;;15.93;5.20;;;9.80;99.90;;;;;;6281541;22;20020;-90
2023/12/21 12:50:13;;;;;;;16.48;6.22;;;9.20;99.90;;;;;;6256426;22;20023;-90
2023/12/21 12:52:50;;;;;;;20.83;4.75;;;9.80;99.90;;;;;;6280683;22;20072;-91
2023/12/21 12:55:19;;;;;;;17.20;4.60;;;9.80;99.90;;;;;;6280471;22;20026;-90
2023/12/21 12:57:52;;;;;;;20.17;4.93;;;9.80;99.90;;;;;;6280725;22;20038;-90
2023/12/21 13:00:21;;;;;;;22.02;5.78;;;9.80;99.90;;;;;;6307141;22;20016;-91
2023/12/21 13:03:08;;;;;;;24.55;5.25;;;9.80;99.90;;;;;;6280457;22;20023;-91
2023/12/21 13:06:00;;;;;;;15.70;5.45;;;9.80;99.90;;;;;;6258153;22;20021;-94
2023/12/21 13:08:33;;;;;;;24.75;6.25;;;10.10;99.90;;;;;;6238930;22;20022;-91
2023/12/21 13:11:04;;;;;;;27.43;6.17;;;9.80;99.90;;;;;;6306613;22;20443;-92
2023/12/21 13:13:40;;;;;;;;;;;;;;;;;;;;;
2023/12/21 13:16:13;;;;;;;13.02;5.07;;;9.80;99.90;;;;;;6283127;22;20115;-92
2023/12/21 13:18:50;;;;;;;18.30;5.55;;;9.80;99.90;;;;;;6280567;22;20015;-91
2023/12/21 13:21:35;;;;;;;18.70;6.43;;;9.30;99.90;;;;;;6258110;22;20011;-91
2023/12/21 13:24:18;;;;;;;23.05;4.97;;;9.70;99.90;;;;;;6259711;22;20034;-93
2023/12/21 13:30:02;;;;;;;16.75;4.75;;;9.80;99.90;;;;;;6264042;22;20049;-94
2023/12/21 13:32:42;;;;;;;31.70;5.95;;;9.90;99.90;;;;;;6269451;22;20102;-93
2023/12/21 13:35:21;;;;;;;;;;;;;;;;;;;;;
2023/12/21 13:37:48;;;;;;;23.15;5.20;;;9.70;99.90;;;;;;6283230;22;20019;-93
2023/12/21 13:40:19;;;;;;;25.10;6.00;;;9.80;99.90;;;;;;6307979;22;20015;-94
2023/12/21 13:42:48;;;;;;;22.75;5.90;;;9.80;99.90;;;;;;6257549;22;20019;-93
2023/12/21 13:45:20;;;;;;;23.00;6.72;;;9.70;99.90;;;;;;6281903;22;20015;-92
2023/12/21 13:48:25;;;;;;;;;;;;;;;;;;;;;
2023/12/21 13:51:01;;;;;;;;;;;;;;;;;;;;;
2023/12/21 13:53:42;;;;;;;28.15;7.50;;;9.60;99.90;;;;;;6307438;22;20055;-92
2023/12/21 13:56:19;;;;;;;22.17;6.35;;;9.70;99.90;;;;;;6308266;22;20018;-93
2023/12/21 13:59:04;;;;;;;34.28;9.05;;;9.60;99.90;;;;;;6281208;22;20061;-93
2023/12/21 14:01:37;;;;;;;24.42;6.72;;;8.90;99.90;;;;;;6281071;22;20050;-93
2023/12/21 14:04:16;;;;;;;;;;;;;;;;;;;;;
2023/12/21 14:06:57;;;;;;;;;;;;;;;;;;;;;
2023/12/21 14:09:39;;;;;;;20.10;5.40;;;9.60;99.90;;;;;;6260505;22;20022;-92
2023/12/21 14:12:34;;;;;;;23.90;5.45;;;9.60;99.90;;;;;;6258413;22;20022;-92
2023/12/21 14:15:03;;;;;;;23.23;7.75;;;9.60;99.90;;;;;;6280802;22;20447;-90
2023/12/21 14:17:40;;;;;;;12.60;4.80;;;9.00;99.90;;;;;;6305277;22;20011;-91
2023/12/21 14:20:25;;;;;;;;;;;;;;;;;;;;;
2023/12/21 14:23:02;;;;;;;8.32;2.20;;;8.20;99.90;;;;;;6307122;22;20018;-91
2023/12/21 14:28:57;;;;;;;6.93;2.08;;;6.60;99.90;;;;;;6308954;22;20084;-92
2023/12/21 14:31:37;;;;;;;14.75;2.47;;;6.30;99.90;;;;;;6305056;22;20458;-92
2023/12/21 14:34:31;;;;;;;11.38;3.05;;;6.30;99.90;;;;;;6282662;22;20022;-92
2023/12/21 14:37:11;;;;;;;12.00;3.92;;;5.50;99.90;;;;;;6307775;22;20062;-94
2023/12/21 14:39:42;;;;;;;10.93;3.85;;;6.10;99.90;;;;;;6259672;22;20027;-92
2023/12/21 14:45:02;;;;;;;14.27;5.05;;;6.20;99.90;;;;;;6284578;22;20024;-92